Time;durP1;ratioP1;P1;durP2;ratioP2;P2;SDS_P1;SDS_P2;PMS_P1;PMS_P2;Temp;Humidity;BMP_temperature;BMP_pressure;BME280_temperature;BME280_humidity;BME280_pressure;Samples;Min_cycle;Max_cycle;Signal;HPM_P1;HPM_P2
2021/11/19 00:01:07;;;;;;;0.30;0.30;;;;;;;;;;5094893;28;20032;-80
2021/11/19 00:03:32;;;;;;;0.17;0.17;;;;;;;;;;5094801;28;20094;-80
2021/11/19 00:05:58;;;;;;;2.55;0.43;;;;;;;;;;5084220;28;20028;-80
2021/11/19 00:08:27;;;;;;;1.25;0.82;;;;;;;;;;5091745;28;20036;-80
2021/11/19 00:10:56;;;;;;;1.10;1.00;;;;;;;;;;5094666;28;20111;-80
2021/11/19 00:13:22;;;;;;;0.52;0.52;;;;;;;;;;5094109;28;20028;-80
2021/11/19 00:15:48;;;;;;;0.30;0.30;;;;;;;;;;5094116;28;20365;-81
2021/11/19 00:18:13;;;;;;;0.52;0.52;;;;;;;;;;5094574;28;20020;-80
2021/11/19 00:20:39;;;;;;;0.32;0.32;;;;;;;;;;5094490;28;20043;-80
2021/11/19 00:23:05;;;;;;;0.50;0.50;;;;;;;;;;5094774;28;20028;-80
2021/11/19 00:25:30;;;;;;;0.73;0.73;;;;;;;;;;5094568;28;20373;-80
2021/11/19 00:27:56;;;;;;;2.42;0.80;;;;;;;;;;5094378;28;20020;-80
2021/11/19 00:30:22;;;;;;;0.17;0.17;;;;;;;;;;5094353;28;20138;-80
2021/11/19 00:32:48;;;;;;;1.45;1.35;;;;;;;;;;5094217;28;20032;-80
2021/11/19 00:35:15;;;;;;;0.73;0.73;;;;;;;;;;5094149;28;20036;-80
2021/11/19 00:37:41;;;;;;;1.60;1.13;;;;;;;;;;5093111;28;20081;-81
2021/11/19 00:40:09;;;;;;;0.22;0.22;;;;;;;;;;5093591;28;20024;-80
2021/11/19 00:42:34;;;;;;;2.28;1.80;;;;;;;;;;5093284;28;20082;-80
2021/11/19 00:44:59;;;;;;;0.85;0.73;;;;;;;;;;5092919;28;20032;-80
2021/11/19 00:47:25;;;;;;;1.92;1.40;;;;;;;;;;5090426;28;20056;-80
2021/11/19 00:49:50;;;;;;;2.72;1.35;;;;;;;;;;5090862;28;20039;-81
2021/11/19 00:52:16;;;;;;;0.20;0.20;;;;;;;;;;5077138;28;20063;-80
2021/11/19 00:54:41;;;;;;;0.85;0.85;;;;;;;;;;5072942;28;20445;-80
2021/11/19 00:57:08;;;;;;;2.00;1.65;;;;;;;;;;5072488;28;20420;-80
2021/11/19 00:59:34;;;;;;;0.43;0.43;;;;;;;;;;5090799;28;20035;-80
2021/11/19 01:02:02;;;;;;;7.97;1.88;;;;;;;;;;5092216;28;20016;-80
2021/11/19 01:04:27;;;;;;;1.58;1.17;;;;;;;;;;5092094;28;20489;-80
2021/11/19 01:06:52;;;;;;;0.47;0.47;;;;;;;;;;5092817;28;20127;-80
2021/11/19 01:09:25;;;;;;;0.68;0.63;;;;;;;;;;5092990;28;20020;-80
2021/11/19 01:11:51;;;;;;;0.43;0.43;;;;;;;;;;5092515;28;20489;-80
2021/11/19 01:14:28;;;;;;;0.40;0.40;;;;;;;;;;5091677;28;20124;-81
2021/11/19 01:16:57;;;;;;;1.27;1.23;;;;;;;;;;5091565;28;20561;-80
2021/11/19 01:19:27;;;;;;;0.22;0.22;;;;;;;;;;5082467;28;20037;-81
2021/11/19 01:21:55;;;;;;;0.25;0.25;;;;;;;;;;5081072;28;20492;-81
2021/11/19 01:24:20;;;;;;;1.08;0.70;;;;;;;;;;5071434;28;20029;-81
2021/11/19 01:26:47;;;;;;;0.63;0.63;;;;;;;;;;5072056;28;20036;-80
2021/11/19 01:29:14;;;;;;;8.35;1.85;;;;;;;;;;5072168;28;20058;-80
2021/11/19 01:31:49;;;;;;;0.85;0.85;;;;;;;;;;5084327;28;20111;-80
2021/11/19 01:34:15;;;;;;;5.07;2.40;;;;;;;;;;5092512;28;20038;-80
2021/11/19 01:36:40;;;;;;;2.05;0.82;;;;;;;;;;5047772;28;1264305;-80
2021/11/19 01:39:07;;;;;;;0.57;0.57;;;;;;;;;;5093353;28;20031;-80
2021/11/19 01:41:37;;;;;;;0.93;0.90;;;;;;;;;;5085674;28;20025;-80
2021/11/19 01:44:11;;;;;;;0.20;0.20;;;;;;;;;;5073079;28;20083;-80
2021/11/19 01:46:36;;;;;;;1.38;1.25;;;;;;;;;;5073098;28;20128;-80
2021/11/19 01:49:01;;;;;;;0.10;0.10;;;;;;;;;;5073084;28;20020;-81
2021/11/19 01:51:30;;;;;;;1.30;1.08;;;;;;;;;;5073166;28;20115;-81
2021/11/19 01:53:58;;;;;;;0.13;0.13;;;;;;;;;;5072989;28;20058;-80
2021/11/19 01:56:59;;;;;;;0.55;0.55;;;;;;;;;;5080781;28;20064;-81
2021/11/19 01:59:50;;;;;;;0.30;0.30;;;;;;;;;;5066810;28;20116;-81
2021/11/19 02:02:17;;;;;;;0.70;0.70;;;;;;;;;;5087827;28;20040;-80
2021/11/19 02:04:54;;;;;;;0.65;0.65;;;;;;;;;;5093261;28;20464;-81
2021/11/19 02:07:24;;;;;;;1.77;1.60;;;;;;;;;;5092064;28;20042;-81
2021/11/19 02:09:58;;;;;;;0.75;0.75;;;;;;;;;;5075255;28;20078;-81
2021/11/19 02:12:29;;;;;;;0.20;0.20;;;;;;;;;;5091178;28;20101;-81
2021/11/19 02:14:58;;;;;;;0.20;0.20;;;;;;;;;;5090430;28;20082;-81
2021/11/19 02:17:23;;;;;;;0.43;0.43;;;;;;;;;;5093084;28;20032;-81
2021/11/19 02:19:50;;;;;;;2.63;0.57;;;;;;;;;;5092787;28;20365;-81
2021/11/19 02:22:21;;;;;;;0.03;0.03;;;;;;;;;;5092987;28;20090;-81
2021/11/19 02:24:51;;;;;;;6.57;1.33;;;;;;;;;;5092986;28;20039;-80
2021/11/19 02:27:16;;;;;;;0.10;0.10;;;;;;;;;;5092624;28;20468;-81
2021/11/19 02:29:45;;;;;;;0.88;0.85;;;;;;;;;;5079671;28;20037;-80
2021/11/19 02:32:16;;;;;;;0.30;0.30;;;;;;;;;;5072686;28;20016;-81
2021/11/19 02:34:42;;;;;;;0.38;0.38;;;;;;;;;;5072634;28;20078;-81
2021/11/19 02:37:09;;;;;;;0.85;0.85;;;;;;;;;;5074574;28;20044;-81
2021/11/19 02:39:38;;;;;;;0.17;0.17;;;;;;;;;;5095761;28;20020;-80
2021/11/19 02:42:06;;;;;;;2.63;1.75;;;;;;;;;;5096107;28;20472;-81
2021/11/19 02:44:34;;;;;;;1.30;0.63;;;;;;;;;;5096437;28;20034;-81
2021/11/19 02:47:06;;;;;;;0.40;0.40;;;;;;;;;;5096266;28;20020;-81
2021/11/19 02:49:32;;;;;;;1.35;1.25;;;;;;;;;;5096355;28;20043;-81
2021/11/19 02:51:58;;;;;;;5.13;1.35;;;;;;;;;;5096109;28;20380;-81
2021/11/19 02:54:25;;;;;;;0.45;0.45;;;;;;;;;;5096196;28;20069;-81
2021/11/19 02:56:50;;;;;;;5.22;0.90;;;;;;;;;;5095734;28;20498;-81
2021/11/19 02:59:17;;;;;;;0.10;0.10;;;;;;;;;;5095933;28;20111;-81
2021/11/19 03:01:44;;;;;;;0.10;0.10;;;;;;;;;;5095818;28;20020;-81
2021/11/19 03:04:15;;;;;;;0.40;0.40;;;;;;;;;;5095958;28;20032;-81
2021/11/19 03:06:43;;;;;;;0.47;0.47;;;;;;;;;;5094350;28;20024;-81
2021/11/19 03:09:09;;;;;;;0.10;0.10;;;;;;;;;;5078624;28;20427;-81
2021/11/19 03:11:35;;;;;;;2.17;1.45;;;;;;;;;;5090406;28;20032;-81
2021/11/19 03:14:04;;;;;;;0.43;0.43;;;;;;;;;;5075541;28;20059;-81
2021/11/19 03:16:29;;;;;;;0.32;0.32;;;;;;;;;;5086496;28;20058;-81
2021/11/19 03:18:54;;;;;;;1.02;0.88;;;;;;;;;;5111575;28;20525;-81
2021/11/19 03:21:20;;;;;;;0.60;0.60;;;;;;;;;;5095605;28;20521;-81
2021/11/19 03:23:46;;;;;;;0.10;0.10;;;;;;;;;;5095669;28;20020;-80
2021/11/19 03:26:12;;;;;;;0.30;0.30;;;;;;;;;;5095536;28;20035;-81
2021/11/19 03:28:38;;;;;;;0.35;0.35;;;;;;;;;;5095513;28;20032;-81
2021/11/19 03:31:05;;;;;;;0.17;0.17;;;;;;;;;;5088145;28;20448;-81
2021/11/19 03:33:31;;;;;;;0.90;0.90;;;;;;;;;;5075543;28;20086;-80
2021/11/19 03:35:57;;;;;;;0.30;0.30;;;;;;;;;;5075048;28;20044;-80
2021/11/19 03:38:24;;;;;;;1.33;1.23;;;;;;;;;;5075304;28;20024;-80
2021/11/19 03:40:50;;;;;;;0.40;0.40;;;;;;;;;;5075037;28;20031;-80
2021/11/19 03:43:18;;;;;;;0.80;0.50;;;;;;;;;;5075047;28;20037;-81
2021/11/19 03:45:45;;;;;;;1.73;1.20;;;;;;;;;;5074914;28;20024;-81
2021/11/19 03:48:11;;;;;;;0.10;0.10;;;;;;;;;;5073939;28;20074;-81
2021/11/19 03:50:40;;;;;;;0.38;0.25;;;;;;;;;;5074889;28;20427;-80
2021/11/19 03:53:06;;;;;;;5.07;1.20;;;;;;;;;;5074812;28;20400;-80
2021/11/19 03:55:33;;;;;;;0.10;0.10;;;;;;;;;;5074737;28;20032;-80
2021/11/19 03:57:58;;;;;;;0.10;0.10;;;;;;;;;;5087077;28;20036;-81
2021/11/19 04:00:27;;;;;;;0.10;0.10;;;;;;;;;;5094960;28;20085;-80
2021/11/19 04:02:53;;;;;;;0.10;0.10;;;;;;;;;;5094553;28;20490;-80
2021/11/19 04:05:18;;;;;;;0.00;0.00;;;;;;;;;;5094805;28;20107;-80
2021/11/19 04:07:44;;;;;;;0.30;0.30;;;;;;;;;;5094656;28;20012;-80
2021/11/19 04:10:10;;;;;;;0.20;0.20;;;;;;;;;;5092811;28;20020;-81
2021/11/19 04:12:36;;;;;;;1.23;1.13;;;;;;;;;;5094305;28;20040;-81
2021/11/19 04:15:01;;;;;;;0.10;0.10;;;;;;;;;;5094244;28;20032;-81
2021/11/19 04:17:27;;;;;;;1.27;0.80;;;;;;;;;;5076799;28;20044;-81
2021/11/19 04:19:52;;;;;;;0.10;0.10;;;;;;;;;;5074042;28;20036;-81
2021/11/19 04:22:18;;;;;;;0.10;0.10;;;;;;;;;;5074189;28;20016;-81
2021/11/19 04:24:46;;;;;;;0.10;0.10;;;;;;;;;;5087896;28;20031;-81
2021/11/19 04:27:12;;;;;;;0.10;0.10;;;;;;;;;;5094699;28;20032;-81
2021/11/19 04:29:38;;;;;;;1.55;0.57;;;;;;;;;;5094404;28;20032;-81
2021/11/19 04:32:04;;;;;;;0.30;0.30;;;;;;;;;;5094371;28;20067;-81
2021/11/19 04:34:30;;;;;;;1.95;1.42;;;;;;;;;;5094352;28;20476;-81
2021/11/19 04:36:56;;;;;;;0.10;0.10;;;;;;;;;;5087448;28;20074;-81
2021/11/19 04:39:21;;;;;;;0.20;0.20;;;;;;;;;;5073959;28;20532;-81
2021/11/19 04:41:47;;;;;;;0.10;0.10;;;;;;;;;;5073845;28;20034;-81
2021/11/19 04:44:12;;;;;;;0.17;0.17;;;;;;;;;;5073851;28;20023;-81
2021/11/19 04:46:39;;;;;;;0.03;0.03;;;;;;;;;;5073780;28;20431;-80
2021/11/19 04:49:04;;;;;;;0.68;0.68;;;;;;;;;;5073776;28;20039;-81
2021/11/19 04:51:31;;;;;;;6.20;0.57;;;;;;;;;;5089456;28;20016;-81
2021/11/19 04:53:56;;;;;;;0.00;0.00;;;;;;;;;;5093884;28;20028;-80
2021/11/19 04:56:22;;;;;;;0.00;0.00;;;;;;;;;;5093831;28;20084;-81
2021/11/19 04:58:48;;;;;;;2.28;0.88;;;;;;;;;;5109210;28;20093;-81
2021/11/19 05:01:18;;;;;;;0.20;0.20;;;;;;;;;;5093586;28;20468;-81
2021/11/19 05:03:44;;;;;;;0.08;0.08;;;;;;;;;;5093788;28;20036;-80
2021/11/19 05:06:09;;;;;;;0.03;0.03;;;;;;;;;;5074996;28;20457;-80
2021/11/19 05:08:34;;;;;;;0.00;0.00;;;;;;;;;;5092277;28;20055;-81
2021/11/19 05:11:00;;;;;;;0.20;0.20;;;;;;;;;;5093657;28;20361;-81
2021/11/19 05:13:27;;;;;;;0.38;0.38;;;;;;;;;;5084496;28;20376;-81
2021/11/19 05:15:52;;;;;;;0.00;0.00;;;;;;;;;;5080010;28;20120;-80
2021/11/19 05:18:19;;;;;;;0.10;0.10;;;;;;;;;;5073337;28;20060;-81
2021/11/19 05:20:44;;;;;;;0.10;0.10;;;;;;;;;;5086219;28;20024;-81
2021/11/19 05:23:10;;;;;;;0.10;0.10;;;;;;;;;;5093195;28;20085;-81
2021/11/19 05:25:36;;;;;;;0.20;0.20;;;;;;;;;;5085925;28;20031;-81
2021/11/19 05:28:01;;;;;;;0.30;0.30;;;;;;;;;;5073218;28;20032;-81
2021/11/19 05:30:27;;;;;;;0.10;0.10;;;;;;;;;;5073439;28;20033;-81
2021/11/19 05:32:52;;;;;;;0.40;0.40;;;;;;;;;;5073246;28;20097;-81
2021/11/19 05:35:19;;;;;;;0.50;0.50;;;;;;;;;;5073323;28;20078;-81
2021/11/19 05:37:44;;;;;;;0.03;0.03;;;;;;;;;;5073322;28;20053;-81
2021/11/19 05:40:12;;;;;;;5.22;1.90;;;;;;;;;;5073110;28;20032;-81
2021/11/19 05:42:37;;;;;;;0.10;0.10;;;;;;;;;;5073841;28;20066;-81
2021/11/19 05:45:03;;;;;;;0.10;0.10;;;;;;;;;;5093332;28;20537;-81
2021/11/19 05:47:28;;;;;;;0.57;0.57;;;;;;;;;;5093389;28;20035;-81
2021/11/19 05:49:57;;;;;;;0.10;0.10;;;;;;;;;;5093361;28;20440;-81
2021/11/19 05:52:22;;;;;;;0.52;0.52;;;;;;;;;;5093262;28;20028;-81
2021/11/19 05:54:47;;;;;;;0.20;0.20;;;;;;;;;;5093313;28;20028;-81
2021/11/19 05:57:13;;;;;;;0.00;0.00;;;;;;;;;;5093198;28;20038;-81
2021/11/19 05:59:38;;;;;;;0.80;0.55;;;;;;;;;;5092892;28;20085;-81
2021/11/19 06:02:06;;;;;;;0.30;0.30;;;;;;;;;;5093283;28;20032;-81
2021/11/19 06:04:31;;;;;;;0.00;0.00;;;;;;;;;;5092861;28;20388;-81
2021/11/19 06:06:56;;;;;;;0.10;0.10;;;;;;;;;;5092048;28;20058;-81
2021/11/19 06:09:29;;;;;;;0.00;0.00;;;;;;;;;;5081290;28;20032;-81
2021/11/19 06:12:07;;;;;;;0.75;0.55;;;;;;;;;;5089520;28;20095;-81
2021/11/19 06:14:41;;;;;;;0.10;0.10;;;;;;;;;;5090308;28;20393;-81
2021/11/19 06:17:13;;;;;;;0.00;0.00;;;;;;;;;;5076613;28;20067;-81
2021/11/19 06:19:40;;;;;;;0.65;0.60;;;;;;;;;;5076466;28;20043;-81
2021/11/19 06:22:08;;;;;;;0.10;0.10;;;;;;;;;;5092386;28;20032;-81
2021/11/19 06:24:36;;;;;;;0.08;0.08;;;;;;;;;;5096838;28;20043;-81
2021/11/19 06:27:01;;;;;;;0.10;0.10;;;;;;;;;;5096740;28;20031;-81
2021/11/19 06:29:27;;;;;;;0.15;0.13;;;;;;;;;;5085119;28;20036;-81
2021/11/19 06:31:54;;;;;;;1.35;0.75;;;;;;;;;;5076201;28;20048;-81
2021/11/19 06:34:20;;;;;;;0.20;0.20;;;;;;;;;;5076310;28;20033;-80
2021/11/19 06:36:45;;;;;;;0.20;0.20;;;;;;;;;;5076261;28;20055;-80
2021/11/19 06:39:11;;;;;;;0.20;0.20;;;;;;;;;;5074898;28;20377;-81
2021/11/19 06:41:37;;;;;;;0.10;0.10;;;;;;;;;;5075878;28;20025;-80
2021/11/19 06:44:03;;;;;;;0.35;0.35;;;;;;;;;;5075824;28;20361;-81
2021/11/19 06:46:28;;;;;;;0.10;0.10;;;;;;;;;;5074968;28;20020;-80
2021/11/19 06:48:54;;;;;;;0.15;0.13;;;;;;;;;;5076076;28;20514;-81
2021/11/19 06:51:20;;;;;;;0.75;0.75;;;;;;;;;;5085510;28;20040;-81
2021/11/19 06:53:47;;;;;;;0.00;0.00;;;;;;;;;;5096212;28;20391;-80
2021/11/19 06:56:12;;;;;;;0.10;0.10;;;;;;;;;;5096077;28;20040;-81
2021/11/19 06:58:37;;;;;;;0.10;0.10;;;;;;;;;;5096104;28;20081;-81
2021/11/19 07:01:03;;;;;;;0.00;0.00;;;;;;;;;;5089595;28;20017;-80
2021/11/19 07:03:29;;;;;;;0.00;0.00;;;;;;;;;;5082337;28;20032;-81
2021/11/19 07:05:55;;;;;;;0.10;0.10;;;;;;;;;;5075502;28;20032;-81
2021/11/19 07:08:20;;;;;;;1.35;1.05;;;;;;;;;;5092332;28;20063;-81
2021/11/19 07:10:47;;;;;;;0.00;0.00;;;;;;;;;;5095859;28;20028;-81
2021/11/19 07:13:13;;;;;;;0.00;0.00;;;;;;;;;;5095690;28;20472;-80
2021/11/19 07:15:38;;;;;;;0.08;0.08;;;;;;;;;;5083992;28;20027;-81
2021/11/19 07:18:04;;;;;;;0.10;0.10;;;;;;;;;;5095759;28;20032;-81
2021/11/19 07:20:30;;;;;;;0.00;0.00;;;;;;;;;;5093127;28;20039;-80
2021/11/19 07:22:57;;;;;;;1.17;0.50;;;;;;;;;;5075441;28;20483;-80
2021/11/19 07:25:24;;;;;;;0.10;0.10;;;;;;;;;;5075403;28;20029;-80
2021/11/19 07:27:53;;;;;;;0.10;0.10;;;;;;;;;;5095874;28;20032;-81
2021/11/19 07:30:20;;;;;;;0.10;0.10;;;;;;;;;;5095411;28;20102;-81
2021/11/19 07:32:46;;;;;;;0.03;0.03;;;;;;;;;;5093812;28;20024;-81
2021/11/19 07:35:11;;;;;;;0.00;0.00;;;;;;;;;;5094400;28;20028;-81
2021/11/19 07:37:38;;;;;;;0.00;0.00;;;;;;;;;;5095481;28;20040;-81
2021/11/19 07:40:04;;;;;;;0.10;0.10;;;;;;;;;;5095311;28;20035;-81
2021/11/19 07:42:29;;;;;;;0.00;0.00;;;;;;;;;;5095242;28;20036;-81
2021/11/19 07:44:54;;;;;;;0.10;0.10;;;;;;;;;;5094991;28;20047;-81
2021/11/19 07:47:20;;;;;;;0.00;0.00;;;;;;;;;;5095118;28;20055;-80
2021/11/19 07:49:45;;;;;;;0.20;0.20;;;;;;;;;;5095052;28;20453;-81
2021/11/19 07:52:10;;;;;;;0.00;0.00;;;;;;;;;;5095083;28;20024;-81
2021/11/19 07:54:36;;;;;;;0.10;0.10;;;;;;;;;;5095003;28;20032;-80
2021/11/19 07:57:01;;;;;;;0.10;0.10;;;;;;;;;;5094391;28;20484;-81
2021/11/19 07:59:28;;;;;;;0.00;0.00;;;;;;;;;;5094581;28;20395;-81
2021/11/19 08:01:57;;;;;;;0.08;0.08;;;;;;;;;;5094307;28;20708;-81
2021/11/19 08:04:22;;;;;;;0.00;0.00;;;;;;;;;;5091912;28;20026;-81
2021/11/19 08:06:48;;;;;;;0.08;0.08;;;;;;;;;;5094195;28;20103;-81
2021/11/19 08:09:14;;;;;;;0.30;0.30;;;;;;;;;;5094627;28;20079;-80
2021/11/19 08:11:39;;;;;;;0.10;0.10;;;;;;;;;;5092785;28;20031;-80
2021/11/19 08:14:05;;;;;;;0.57;0.57;;;;;;;;;;5093972;28;20096;-80
2021/11/19 08:16:38;;;;;;;0.10;0.10;;;;;;;;;;5084738;28;20041;-80
2021/11/19 08:19:04;;;;;;;0.88;0.85;;;;;;;;;;5072898;28;20386;-80
2021/11/19 08:21:30;;;;;;;0.10;0.10;;;;;;;;;;5074246;28;20388;-81
2021/11/19 08:23:57;;;;;;;0.10;0.10;;;;;;;;;;5074226;28;20020;-80
2021/11/19 08:26:28;;;;;;;0.30;0.30;;;;;;;;;;5088997;28;20424;-80
2021/11/19 08:28:54;;;;;;;0.10;0.10;;;;;;;;;;5094464;28;20086;-80
2021/11/19 08:31:21;;;;;;;0.30;0.30;;;;;;;;;;5093576;28;20023;-80
2021/11/19 08:33:48;;;;;;;0.63;0.63;;;;;;;;;;5085577;28;20032;-80
2021/11/19 08:36:14;;;;;;;0.00;0.00;;;;;;;;;;5078022;28;20108;-80
2021/11/19 08:38:42;;;;;;;0.00;0.00;;;;;;;;;;5088288;28;20104;-81
2021/11/19 08:41:07;;;;;;;0.00;0.00;;;;;;;;;;5094208;28;20036;-81
2021/11/19 08:43:34;;;;;;;0.10;0.10;;;;;;;;;;5094030;28;20047;-81
2021/11/19 08:46:00;;;;;;;0.00;0.00;;;;;;;;;;5082904;28;20031;-81
2021/11/19 08:48:27;;;;;;;0.10;0.10;;;;;;;;;;5093465;28;20036;-81
2021/11/19 08:50:54;;;;;;;1.85;1.75;;;;;;;;;;5093794;28;20028;-82
2021/11/19 08:53:19;;;;;;;0.28;0.28;;;;;;;;;;5093859;28;20020;-81
2021/11/19 08:55:46;;;;;;;0.10;0.10;;;;;;;;;;5084623;28;20084;-81
2021/11/19 08:58:13;;;;;;;0.03;0.03;;;;;;;;;;5087957;28;20032;-81
2021/11/19 09:00:38;;;;;;;0.22;0.22;;;;;;;;;;5089026;28;20020;-81
2021/11/19 09:03:07;;;;;;;0.22;0.22;;;;;;;;;;5088971;28;20035;-81
2021/11/19 09:05:33;;;;;;;0.10;0.10;;;;;;;;;;5088543;28;20032;-81
2021/11/19 09:07:58;;;;;;;0.10;0.10;;;;;;;;;;5089143;28;20035;-81
2021/11/19 09:10:24;;;;;;;0.38;0.38;;;;;;;;;;5089830;28;20028;-81
2021/11/19 09:12:50;;;;;;;0.10;0.10;;;;;;;;;;5089169;28;20080;-81
2021/11/19 09:15:16;;;;;;;0.20;0.20;;;;;;;;;;5088928;28;20085;-81
2021/11/19 09:18:11;;;;;;;0.00;0.00;;;;;;;;;;5089190;28;20110;-81
2021/11/19 09:20:37;;;;;;;0.00;0.00;;;;;;;;;;5080919;28;20044;-80
2021/11/19 09:23:05;;;;;;;0.05;0.05;;;;;;;;;;5089118;28;20518;-80
2021/11/19 09:25:32;;;;;;;0.10;0.10;;;;;;;;;;5088660;28;20452;-82
2021/11/19 09:27:57;;;;;;;0.20;0.20;;;;;;;;;;5089294;28;20036;-81
2021/11/19 09:30:26;;;;;;;0.38;0.38;;;;;;;;;;5088740;28;20039;-81
2021/11/19 09:32:53;;;;;;;0.25;0.20;;;;;;;;;;5089288;28;20137;-80
2021/11/19 09:35:20;;;;;;;0.10;0.10;;;;;;;;;;5088617;28;20043;-80
2021/11/19 09:37:48;;;;;;;0.10;0.10;;;;;;;;;;5087047;28;20059;-81
2021/11/19 09:40:14;;;;;;;0.00;0.00;;;;;;;;;;5088113;28;20027;-81
2021/11/19 09:42:45;;;;;;;0.10;0.10;;;;;;;;;;5085738;28;20032;-81
2021/11/19 09:45:14;;;;;;;0.10;0.10;;;;;;;;;;5087256;28;20066;-80
2021/11/19 09:47:42;;;;;;;0.85;0.85;;;;;;;;;;5092354;28;20029;-81
2021/11/19 09:50:26;;;;;;;0.00;0.00;;;;;;;;;;5092104;28;20472;-81
2021/11/19 09:53:09;;;;;;;0.08;0.08;;;;;;;;;;5092944;28;20040;-81
2021/11/19 09:55:44;;;;;;;1.35;0.90;;;;;;;;;;5090078;28;20074;-81
2021/11/19 09:58:16;;;;;;;0.00;0.00;;;;;;;;;;5069132;28;21000;-81
2021/11/19 10:00:47;;;;;;;0.00;0.00;;;;;;;;;;5081169;28;20568;-81
2021/11/19 10:03:18;;;;;;;0.00;0.00;;;;;;;;;;5091206;28;20128;-81
2021/11/19 10:05:49;;;;;;;0.00;0.00;;;;;;;;;;5091144;28;20032;-81
2021/11/19 10:08:15;;;;;;;0.75;0.75;;;;;;;;;;5091658;28;20445;-81
2021/11/19 10:10:48;;;;;;;0.20;0.20;;;;;;;;;;5090561;28;20503;-81
2021/11/19 10:13:32;;;;;;;0.10;0.10;;;;;;;;;;5092070;28;20020;-81
2021/11/19 10:16:03;;;;;;;0.17;0.17;;;;;;;;;;5091438;28;20906;-81
2021/11/19 10:18:47;;;;;;;0.85;0.85;;;;;;;;;;5090750;28;20487;-81
2021/11/19 10:21:27;;;;;;;0.00;0.00;;;;;;;;;;5091176;28;20028;-80
2021/11/19 10:23:54;;;;;;;0.00;0.00;;;;;;;;;;5089796;28;20996;-80
2021/11/19 10:26:33;;;;;;;0.00;0.00;;;;;;;;;;5090555;28;20484;-80
2021/11/19 10:29:07;;;;;;;0.13;0.13;;;;;;;;;;5070785;28;20032;-80
2021/11/19 10:31:32;;;;;;;0.00;0.00;;;;;;;;;;5071504;28;20038;-80
2021/11/19 10:34:16;;;;;;;0.00;0.00;;;;;;;;;;5070313;28;20863;-80
2021/11/19 10:36:56;;;;;;;0.13;0.13;;;;;;;;;;5070377;28;20119;-81
2021/11/19 10:39:28;;;;;;;0.20;0.20;;;;;;;;;;5085004;28;20038;-80
2021/11/19 10:41:53;;;;;;;0.00;0.00;;;;;;;;;;5082846;28;20035;-81
2021/11/19 10:44:37;;;;;;;0.20;0.20;;;;;;;;;;5089069;28;20027;-81
2021/11/19 10:47:17;;;;;;;0.00;0.00;;;;;;;;;;5089666;28;20032;-81
2021/11/19 10:49:55;;;;;;;0.00;0.00;;;;;;;;;;5091027;28;20135;-81
2021/11/19 10:52:39;;;;;;;0.00;0.00;;;;;;;;;;5090026;28;20464;-80
2021/11/19 10:55:25;;;;;;;0.00;0.00;;;;;;;;;;5089969;28;20069;-80
2021/11/19 10:57:56;;;;;;;0.00;0.00;;;;;;;;;;5067817;28;20051;-80
2021/11/19 11:00:37;;;;;;;0.20;0.20;;;;;;;;;;5088769;28;20032;-80
2021/11/19 11:03:11;;;;;;;0.15;0.15;;;;;;;;;;5090427;28;20035;-80
2021/11/19 11:05:38;;;;;;;0.00;0.00;;;;;;;;;;5089533;28;20499;-80
2021/11/19 11:08:05;;;;;;;0.10;0.10;;;;;;;;;;5090567;28;20039;-80
2021/11/19 11:10:33;;;;;;;0.17;0.17;;;;;;;;;;5088807;28;20036;-81
2021/11/19 11:12:58;;;;;;;0.13;0.13;;;;;;;;;;5089835;28;20030;-80
2021/11/19 11:15:24;;;;;;;0.28;0.28;;;;;;;;;;5081338;28;20029;-81
2021/11/19 13:10:20;;;;;;;0.10;0.10;;;;;;;;;;4955558;28;20055;-84
2021/11/19 13:12:57;;;;;;;0.10;0.10;;;;;;;;;;4951941;29;20031;-84
2021/11/19 13:15:22;;;;;;;0.00;0.00;;;;;;;;;;4952829;29;20455;-85
2021/11/19 13:17:56;;;;;;;0.10;0.10;;;;;;;;;;4952482;29;20041;-84
2021/11/19 13:20:40;;;;;;;0.00;0.00;;;;;;;;;;4952299;29;20055;-85
2021/11/19 13:23:23;;;;;;;0.00;0.00;;;;;;;;;;4952559;29;20045;-81
2021/11/19 13:25:49;;;;;;;0.30;0.30;;;;;;;;;;4952326;29;20035;-84
2021/11/19 13:28:34;;;;;;;0.17;0.17;;;;;;;;;;4952408;29;20038;-85
2021/11/19 13:31:18;;;;;;;0.10;0.10;;;;;;;;;;4965556;28;20034;-82
2021/11/19 13:34:02;;;;;;;0.85;0.45;;;;;;;;;;4948783;29;20038;-87
2021/11/19 13:36:44;;;;;;;0.08;0.08;;;;;;;;;;4951427;28;20784;-83
2021/11/19 13:39:31;;;;;;;0.00;0.00;;;;;;;;;;4948774;29;20031;-86
2021/11/19 13:42:00;;;;;;;0.98;0.57;;;;;;;;;;4952003;29;20031;-83
2021/11/19 13:45:05;;;;;;;1.08;0.93;;;;;;;;;;4951184;29;20078;-83
2021/11/19 13:47:31;;;;;;;0.10;0.10;;;;;;;;;;4913058;29;20190;-84
2021/11/19 13:50:12;;;;;;;1.00;0.52;;;;;;;;;;4952592;29;20135;-84
2021/11/19 13:52:55;;;;;;;0.10;0.10;;;;;;;;;;4952211;29;20042;-84
2021/11/19 13:55:31;;;;;;;0.10;0.10;;;;;;;;;;4951980;28;20119;-87
2021/11/19 13:58:09;;;;;;;0.00;0.00;;;;;;;;;;4950942;28;20039;-86
2021/11/19 14:00:43;;;;;;;1.33;1.23;;;;;;;;;;4950143;29;20487;-86
2021/11/19 14:03:13;;;;;;;0.10;0.10;;;;;;;;;;4950284;29;20035;-87
2021/11/19 14:05:48;;;;;;;0.00;0.00;;;;;;;;;;4947868;29;20058;-86
2021/11/19 14:08:16;;;;;;;0.30;0.30;;;;;;;;;;4949545;29;20035;-87
2021/11/19 14:10:45;;;;;;;1.35;0.93;;;;;;;;;;4950324;28;20051;-87
2021/11/19 14:13:13;;;;;;;0.28;0.17;;;;;;;;;;4950024;29;20043;-86
2021/11/19 14:15:39;;;;;;;0.38;0.38;;;;;;;;;;4949551;29;20026;-87
2021/11/19 14:18:04;;;;;;;1.20;0.50;;;;;;;;;;4950462;29;20090;-86
2021/11/19 14:23:25;;;;;;;0.68;0.43;;;;;;;;;;4950316;29;20035;-87
2021/11/19 14:25:54;;;;;;;0.65;0.65;;;;;;;;;;4950076;29;20032;-86
2021/11/19 14:28:21;;;;;;;0.38;0.38;;;;;;;;;;4950169;29;20030;-87
2021/11/19 14:30:47;;;;;;;0.10;0.10;;;;;;;;;;4950240;29;20036;-86
2021/11/19 14:33:12;;;;;;;0.17;0.17;;;;;;;;;;4952839;28;20369;-87
2021/11/19 14:35:40;;;;;;;0.00;0.00;;;;;;;;;;4953545;29;20019;-87
2021/11/19 14:38:08;;;;;;;0.28;0.28;;;;;;;;;;4954612;29;20032;-86
2021/11/19 14:40:37;;;;;;;0.30;0.30;;;;;;;;;;4953991;29;20051;-87
2021/11/19 14:43:02;;;;;;;0.13;0.13;;;;;;;;;;4956858;28;20035;-87
2021/11/19 14:45:33;;;;;;;0.63;0.63;;;;;;;;;;4952325;29;20035;-87
2021/11/19 14:48:01;;;;;;;0.00;0.00;;;;;;;;;;4953563;29;20110;-86
2021/11/19 14:53:17;;;;;;;0.47;0.47;;;;;;;;;;4952187;28;20510;-87
2021/11/19 14:55:46;;;;;;;1.08;0.90;;;;;;;;;;4938096;29;20031;-87
2021/11/19 14:58:20;;;;;;;0.95;0.43;;;;;;;;;;4955711;29;20063;-87
2021/11/19 15:00:51;;;;;;;0.40;0.40;;;;;;;;;;4954722;29;20046;-87
2021/11/19 15:03:17;;;;;;;0.30;0.30;;;;;;;;;;4954018;29;20040;-87
2021/11/19 15:05:46;;;;;;;1.13;0.88;;;;;;;;;;4952839;29;20106;-87
2021/11/19 15:08:29;;;;;;;2.40;1.73;;;;;;;;;;4952826;29;20035;-86
2021/11/19 15:11:00;;;;;;;0.80;0.80;;;;;;;;;;4969450;28;20450;-85
2021/11/19 15:13:26;;;;;;;0.95;0.88;;;;;;;;;;4972568;28;20046;-87
2021/11/19 15:15:58;;;;;;;1.83;1.50;;;;;;;;;;4972435;28;20073;-86
2021/11/19 15:18:26;;;;;;;1.05;0.90;;;;;;;;;;4972807;28;20109;-87
2021/11/19 15:21:11;;;;;;;0.32;0.20;;;;;;;;;;4973421;28;20027;-87
2021/11/19 15:23:40;;;;;;;1.75;1.45;;;;;;;;;;4972542;28;20486;-87
2021/11/19 15:26:38;;;;;;;0.25;0.25;;;;;;;;;;4972241;28;20042;-86
2021/11/19 15:29:21;;;;;;;4.38;0.57;;;;;;;;;;4939327;28;20133;-87
2021/11/19 15:31:53;;;;;;;0.10;0.10;;;;;;;;;;4972119;28;20129;-87
2021/11/19 15:34:18;;;;;;;0.38;0.38;;;;;;;;;;4972150;28;20034;-86
2021/11/19 15:37:02;;;;;;;0.08;0.08;;;;;;;;;;4971723;28;20434;-87
2021/11/19 15:39:27;;;;;;;1.35;1.13;;;;;;;;;;4972187;28;20073;-86
2021/11/19 15:41:52;;;;;;;0.50;0.50;;;;;;;;;;4972205;28;20066;-86
2021/11/19 15:44:26;;;;;;;0.68;0.52;;;;;;;;;;4971304;28;20121;-85
2021/11/19 15:46:52;;;;;;;0.47;0.47;;;;;;;;;;4977176;28;20479;-86
2021/11/19 15:49:18;;;;;;;1.65;0.85;;;;;;;;;;4972226;28;20035;-87
2021/11/19 15:51:49;;;;;;;1.10;0.57;;;;;;;;;;4975800;28;20078;-86
2021/11/19 15:54:23;;;;;;;0.50;0.50;;;;;;;;;;4972742;28;20031;-87
2021/11/19 15:56:55;;;;;;;1.30;0.98;;;;;;;;;;4977834;28;20411;-86
2021/11/19 15:59:23;;;;;;;2.20;1.15;;;;;;;;;;4970134;28;20034;-87
2021/11/19 16:02:07;;;;;;;3.40;2.05;;;;;;;;;;4974273;28;20023;-87
2021/11/19 16:04:51;;;;;;;1.20;1.10;;;;;;;;;;4969994;28;20022;-86
2021/11/19 16:07:34;;;;;;;0.63;0.60;;;;;;;;;;4983784;28;20069;-87
2021/11/19 16:10:19;;;;;;;0.15;0.15;;;;;;;;;;4975094;28;20047;-86
2021/11/19 16:13:04;;;;;;;0.27;0.27;;;;;;;;;;4990796;28;20494;-86
2021/11/19 16:15:31;;;;;;;1.52;0.88;;;;;;;;;;4973187;28;20072;-86
2021/11/19 16:17:56;;;;;;;1.10;0.95;;;;;;;;;;4990622;28;20057;-85
2021/11/19 16:20:21;;;;;;;0.00;0.00;;;;;;;;;;4991590;28;20443;-85
2021/11/19 16:22:47;;;;;;;0.90;0.90;;;;;;;;;;4990743;28;20390;-86
2021/11/19 16:25:14;;;;;;;0.65;0.55;;;;;;;;;;4992052;28;20044;-86
2021/11/19 16:27:40;;;;;;;1.67;1.55;;;;;;;;;;4990783;28;20033;-86
2021/11/19 16:30:25;;;;;;;1.40;1.30;;;;;;;;;;4991896;28;20041;-86
2021/11/19 16:32:51;;;;;;;0.45;0.45;;;;;;;;;;4991039;28;20320;-87
2021/11/19 16:35:17;;;;;;;1.35;1.23;;;;;;;;;;4991824;28;20463;-86
2021/11/19 16:37:44;;;;;;;2.00;1.58;;;;;;;;;;4991746;28;20121;-85
2021/11/19 16:40:11;;;;;;;1.33;0.65;;;;;;;;;;4991809;28;20019;-86
2021/11/19 16:42:36;;;;;;;1.50;1.20;;;;;;;;;;4991749;28;20105;-87
2021/11/19 16:45:06;;;;;;;1.73;1.08;;;;;;;;;;4991435;28;20117;-86
2021/11/19 16:47:32;;;;;;;1.70;1.60;;;;;;;;;;4991000;28;20110;-85
2021/11/19 16:49:57;;;;;;;1.08;0.93;;;;;;;;;;4991504;28;20121;-86
2021/11/19 16:52:24;;;;;;;0.73;0.73;;;;;;;;;;4991392;28;20034;-85